createdAt,value
2016-07-06T00:00:02.717Z,1006.52
2016-07-06T00:01:02.511Z,1006.49
2016-07-06T00:02:02.512Z,1006.55
2016-07-06T00:03:02.511Z,1006.46
2016-07-06T00:04:02.511Z,1006.51
2016-07-06T00:05:02.505Z,1006.47
2016-07-06T00:06:02.506Z,1006.46
2016-07-06T00:07:02.506Z,1006.48
2016-07-06T00:08:02.505Z,1006.59
2016-07-06T00:09:02.500Z,1006.5
2016-07-06T00:10:02.498Z,1006.54
2016-07-06T00:11:02.499Z,1006.57
2016-07-06T00:12:02.495Z,1006.62
2016-07-06T00:13:02.495Z,1006.54
2016-07-06T00:14:02.542Z,1006.58
2016-07-06T00:15:02.493Z,1006.53
2016-07-06T00:16:02.491Z,1006.55
2016-07-06T00:17:02.487Z,1006.61
2016-07-06T00:18:02.486Z,1006.6
2016-07-06T00:19:02.487Z,1006.57
2016-07-06T00:20:02.482Z,1006.61
2016-07-06T00:21:02.481Z,1006.57
2016-07-06T00:22:02.480Z,1006.56
2016-07-06T00:23:02.478Z,1006.58
2016-07-06T00:24:02.476Z,1006.57
2016-07-06T00:25:02.473Z,1006.65
2016-07-06T00:26:02.473Z,1006.59
2016-07-06T00:27:02.466Z,1006.59
2016-07-06T00:28:02.468Z,1006.64
2016-07-06T00:29:02.469Z,1006.59
2016-07-06T00:30:02.465Z,1006.59
2016-07-06T00:31:02.467Z,1006.64
2016-07-06T00:32:02.463Z,1006.63
2016-07-06T00:33:02.464Z,1006.63
2016-07-06T00:34:02.458Z,1006.61
2016-07-06T00:35:02.456Z,1006.69
2016-07-06T00:36:02.458Z,1006.65
2016-07-06T00:37:02.455Z,1006.66
2016-07-06T00:38:02.454Z,1006.62
2016-07-06T00:39:02.452Z,1006.65
2016-07-06T00:40:02.452Z,1006.71
2016-07-06T00:41:02.445Z,1006.65
2016-07-06T00:42:02.449Z,1006.67
2016-07-06T00:43:02.443Z,1006.67
2016-07-06T00:44:02.444Z,1006.72
2016-07-06T00:45:02.444Z,1006.61
2016-07-06T00:46:02.441Z,1006.61
2016-07-06T00:47:02.442Z,1006.73
2016-07-06T00:48:02.440Z,1006.63
2016-07-06T00:49:02.438Z,1006.75
2016-07-06T00:50:02.435Z,1006.66
2016-07-06T00:51:02.434Z,1006.73
2016-07-06T00:52:02.434Z,1006.7
2016-07-06T00:53:02.433Z,1006.69
2016-07-06T00:54:02.843Z,1006.71
2016-07-06T00:55:02.429Z,1006.66
2016-07-06T00:56:02.897Z,1006.69
2016-07-06T00:57:02.917Z,1006.66
2016-07-06T00:58:02.419Z,1006.68
2016-07-06T00:59:03.147Z,1006.66
2016-07-06T01:00:02.422Z,1006.67
2016-07-06T01:01:02.419Z,1006.72
2016-07-06T01:02:02.418Z,1006.57
2016-07-06T01:03:02.418Z,1006.7
2016-07-06T01:04:02.415Z,1006.66
2016-07-06T01:05:02.414Z,1006.66
2016-07-06T01:06:02.412Z,1006.75
2016-07-06T01:07:02.411Z,1006.79
2016-07-06T01:08:02.409Z,1006.65
2016-07-06T01:09:02.407Z,1006.71
2016-07-06T01:10:02.405Z,1006.64
2016-07-06T01:11:02.461Z,1006.74
2016-07-06T01:12:02.464Z,1006.73
2016-07-06T01:13:02.402Z,1006.71
2016-07-06T01:14:02.452Z,1006.73
2016-07-06T01:15:02.397Z,1006.76
2016-07-06T01:16:02.392Z,1006.8
2016-07-06T01:17:02.396Z,1006.77
2016-07-06T01:18:02.394Z,1006.85
2016-07-06T01:19:02.388Z,1006.79
2016-07-06T01:20:02.391Z,1006.74
2016-07-06T01:21:03.345Z,1006.82
2016-07-06T01:22:02.388Z,1006.67
2016-07-06T01:23:02.632Z,1006.78
2016-07-06T01:24:02.384Z,1006.75
2016-07-06T01:25:02.384Z,1006.65
2016-07-06T01:26:03.032Z,1006.73
2016-07-06T01:27:02.379Z,1006.82
2016-07-06T01:28:02.373Z,1006.76
2016-07-06T01:29:02.376Z,1006.8
2016-07-06T01:30:03.124Z,1006.82
2016-07-06T01:31:02.418Z,1006.8
2016-07-06T01:32:02.368Z,1006.77
2016-07-06T01:33:02.370Z,1006.82
2016-07-06T01:34:02.366Z,1006.75
2016-07-06T01:35:02.366Z,1006.76
2016-07-06T01:36:02.364Z,1006.78
2016-07-06T01:37:02.362Z,1006.79
2016-07-06T01:38:02.360Z,1006.73
2016-07-06T01:39:02.358Z,1006.75
2016-07-06T01:40:02.359Z,1006.66
2016-07-06T01:41:02.356Z,1006.6
2016-07-06T01:42:02.355Z,1006.7
2016-07-06T01:43:02.352Z,1006.67
2016-07-06T01:44:02.349Z,1006.73
2016-07-06T01:45:02.349Z,1006.77
2016-07-06T01:46:02.347Z,1006.78
2016-07-06T01:47:02.346Z,1006.74
2016-07-06T01:48:02.343Z,1006.69
2016-07-06T01:49:02.343Z,1006.83
2016-07-06T01:50:02.339Z,1006.7
2016-07-06T01:51:02.338Z,1006.75
2016-07-06T01:52:02.337Z,1006.78
2016-07-06T01:53:02.335Z,1006.72
2016-07-06T01:54:02.335Z,1006.76
2016-07-06T01:55:02.332Z,1006.81
2016-07-06T01:56:02.327Z,1006.77
2016-07-06T01:57:02.325Z,1006.9
2016-07-06T01:58:02.324Z,1006.79
2016-07-06T01:59:02.325Z,1006.76
2016-07-06T02:00:02.324Z,1006.9
2016-07-06T02:01:02.322Z,1006.78
2016-07-06T02:02:02.316Z,1006.88
2016-07-06T02:03:02.316Z,1006.89
2016-07-06T02:04:03.832Z,1006.9
2016-07-06T02:05:02.552Z,1006.82
2016-07-06T02:06:03.235Z,1006.84
2016-07-06T02:07:02.313Z,1006.87
2016-07-06T02:08:02.310Z,1006.91
2016-07-06T02:09:02.309Z,1006.86
2016-07-06T02:10:02.302Z,1006.89
2016-07-06T02:11:02.483Z,1006.93
2016-07-06T02:12:02.304Z,1006.86
2016-07-06T02:13:02.300Z,1006.88
2016-07-06T02:14:02.295Z,1006.9
2016-07-06T02:15:02.297Z,1006.99
2016-07-06T02:16:02.296Z,1006.87
2016-07-06T02:17:02.293Z,1006.97
2016-07-06T02:18:02.288Z,1006.91
2016-07-06T02:19:02.290Z,1006.96
2016-07-06T02:20:02.288Z,1007.03
2016-07-06T02:21:02.286Z,1006.99
2016-07-06T02:22:02.284Z,1006.97
2016-07-06T02:23:02.283Z,1006.93
2016-07-06T02:24:02.280Z,1007.03
2016-07-06T02:25:02.277Z,1006.96
2016-07-06T02:26:02.276Z,1006.9
2016-07-06T02:27:02.276Z,1006.94
2016-07-06T02:28:02.271Z,1006.99
2016-07-06T02:29:02.270Z,1006.89
2016-07-06T02:30:02.265Z,1006.98
2016-07-06T02:31:02.264Z,1006.98
2016-07-06T02:32:02.258Z,1006.96
2016-07-06T02:33:02.256Z,1006.99
2016-07-06T02:34:02.259Z,1006.96
2016-07-06T02:35:02.258Z,1006.9
2016-07-06T02:36:02.252Z,1006.93
2016-07-06T02:37:02.248Z,1006.89
2016-07-06T02:38:02.251Z,1007
2016-07-06T02:39:02.248Z,1006.95
2016-07-06T02:40:02.247Z,1007.01
2016-07-06T02:41:02.245Z,1007.09
2016-07-06T02:42:02.244Z,1007.03
2016-07-06T02:43:02.237Z,1007.03
2016-07-06T02:44:02.238Z,1007.1
2016-07-06T02:45:03.188Z,1007.11
2016-07-06T02:46:02.228Z,1007.1
2016-07-06T02:47:02.230Z,1007.01
2016-07-06T02:48:02.222Z,1007.14
2016-07-06T02:49:02.225Z,1007.15
2016-07-06T02:50:02.224Z,1007.14
2016-07-06T02:51:02.220Z,1007.11
2016-07-06T02:52:02.219Z,1007.19
2016-07-06T02:53:02.217Z,1007.12
2016-07-06T02:54:02.213Z,1007.14
2016-07-06T02:55:02.214Z,1007.28
2016-07-06T02:56:02.209Z,1007.13
2016-07-06T02:57:02.207Z,1007.15
2016-07-06T02:58:02.205Z,1007.13
2016-07-06T02:59:02.203Z,1007.12
2016-07-06T03:00:02.201Z,1007.25
2016-07-06T03:01:02.200Z,1007.18
2016-07-06T03:02:02.198Z,1007.21
2016-07-06T03:03:02.195Z,1007.25
2016-07-06T03:04:02.193Z,1007.28
2016-07-06T03:05:02.191Z,1007.27
2016-07-06T03:06:02.189Z,1007.28
2016-07-06T03:07:02.186Z,1007.19
2016-07-06T03:08:02.183Z,1007.29
2016-07-06T03:09:02.183Z,1007.33
2016-07-06T03:10:02.178Z,1007.31
2016-07-06T03:11:02.179Z,1007.49
2016-07-06T03:12:02.174Z,1007.44
2016-07-06T03:13:02.173Z,1007.38
2016-07-06T03:14:02.216Z,1007.34
2016-07-06T03:15:02.167Z,1007.48
2016-07-06T03:16:02.164Z,1007.45
2016-07-06T03:17:02.162Z,1007.43
2016-07-06T03:18:02.157Z,1007.31
2016-07-06T03:19:02.158Z,1007.41
2016-07-06T03:20:02.154Z,1007.48
2016-07-06T03:21:02.153Z,1007.45
2016-07-06T03:22:02.152Z,1007.47
2016-07-06T03:23:02.152Z,1007.51
2016-07-06T03:24:02.157Z,1007.48
2016-07-06T03:25:02.142Z,1007.45
2016-07-06T03:26:02.143Z,1007.46
2016-07-06T03:27:02.144Z,1007.54
2016-07-06T03:28:02.139Z,1007.54
2016-07-06T03:29:02.134Z,1007.51
2016-07-06T03:30:02.133Z,1007.56
2016-07-06T03:31:02.134Z,1007.56
2016-07-06T03:32:02.132Z,1007.55
2016-07-06T03:33:02.129Z,1007.53
2016-07-06T03:34:03.333Z,1007.55
2016-07-06T03:35:02.123Z,1007.56
2016-07-06T03:36:02.121Z,1007.55
2016-07-06T03:37:02.119Z,1007.58
2016-07-06T03:38:02.116Z,1007.54
2016-07-06T03:39:02.114Z,1007.55
2016-07-06T03:40:02.115Z,1007.54
2016-07-06T03:41:02.110Z,1007.65
2016-07-06T03:42:02.108Z,1007.63
2016-07-06T03:43:02.106Z,1007.54
2016-07-06T03:44:02.105Z,1007.63
2016-07-06T03:45:02.099Z,1007.55
2016-07-06T03:46:02.100Z,1007.62
2016-07-06T03:47:02.094Z,1007.63
2016-07-06T03:48:02.088Z,1007.7
2016-07-06T03:49:02.086Z,1007.65
2016-07-06T03:50:02.087Z,1007.67
2016-07-06T03:51:02.084Z,1007.65
2016-07-06T03:52:02.083Z,1007.77
2016-07-06T03:53:02.080Z,1007.73
2016-07-06T03:54:02.082Z,1007.74
2016-07-06T03:55:02.078Z,1007.87
2016-07-06T03:56:02.075Z,1007.78
2016-07-06T03:57:02.075Z,1007.94
2016-07-06T03:58:02.069Z,1007.93
2016-07-06T03:59:02.065Z,1007.89
2016-07-06T04:00:02.062Z,1007.97
2016-07-06T04:01:02.061Z,1007.87
2016-07-06T04:02:02.061Z,1007.92
2016-07-06T04:03:02.215Z,1007.9
2016-07-06T04:05:02.060Z,1007.84
2016-07-06T04:06:02.060Z,1007.73
2016-07-06T04:07:02.060Z,1007.76
2016-07-06T04:08:02.061Z,1007.79
2016-07-06T04:09:02.061Z,1007.74
2016-07-06T04:10:02.061Z,1007.77
2016-07-06T04:11:02.058Z,1007.87
2016-07-06T04:12:02.056Z,1007.85
2016-07-06T04:13:02.060Z,1007.82
2016-07-06T04:14:02.056Z,1007.88
2016-07-06T04:15:02.060Z,1007.81
2016-07-06T04:16:02.062Z,1007.9
2016-07-06T04:17:02.061Z,1007.84
2016-07-06T04:18:02.058Z,1007.87
2016-07-06T04:19:02.059Z,1007.86
2016-07-06T04:20:02.064Z,1007.95
2016-07-06T04:21:02.063Z,1007.93
2016-07-06T04:22:02.062Z,1007.95
2016-07-06T04:23:02.063Z,1007.89
2016-07-06T04:24:02.063Z,1007.99
2016-07-06T04:25:02.062Z,1008.02
2016-07-06T04:26:02.062Z,1008
2016-07-06T04:27:02.058Z,1007.93
2016-07-06T04:28:02.062Z,1008.03
2016-07-06T04:29:02.056Z,1008.04
2016-07-06T04:30:02.057Z,1007.99
2016-07-06T04:31:02.057Z,1008.03
2016-07-06T04:32:02.060Z,1008.08
2016-07-06T04:33:02.064Z,1008.1
2016-07-06T04:34:02.060Z,1008.16
2016-07-06T04:35:02.060Z,1008.13
2016-07-06T04:36:02.058Z,1008.07
2016-07-06T04:37:02.058Z,1008.14
2016-07-06T04:38:02.057Z,1008.15
2016-07-06T04:39:02.056Z,1008.08
2016-07-06T04:40:02.054Z,1008.16
2016-07-06T04:41:02.052Z,1008.1
2016-07-06T04:42:02.051Z,1008.13
2016-07-06T04:43:02.051Z,1008.14
2016-07-06T04:44:02.048Z,1008.05
2016-07-06T04:45:02.046Z,1008.05
2016-07-06T04:46:02.051Z,1008.14
2016-07-06T04:47:02.045Z,1008.02
2016-07-06T04:48:02.048Z,1008.06
2016-07-06T04:49:02.725Z,1008.07
2016-07-06T04:50:02.041Z,1008.1
2016-07-06T04:51:02.941Z,1008.18
2016-07-06T04:52:03.000Z,1008.12
2016-07-06T04:53:02.043Z,1008.11
2016-07-06T04:54:02.042Z,1008.19
2016-07-06T04:55:02.040Z,1008.2
2016-07-06T04:56:02.038Z,1008.26
2016-07-06T04:57:02.039Z,1008.22
2016-07-06T04:58:02.034Z,1008.22
2016-07-06T04:59:02.031Z,1008.26
2016-07-06T05:00:02.033Z,1008.14
2016-07-06T05:01:02.029Z,1008.09
2016-07-06T05:02:02.028Z,1008.08
2016-07-06T05:03:02.027Z,1008.11
2016-07-06T05:04:02.029Z,1008.18
2016-07-06T05:05:02.028Z,1008.2
2016-07-06T05:06:02.027Z,1008.19
2016-07-06T05:07:02.022Z,1008.19
2016-07-06T05:08:02.029Z,1008.22
2016-07-06T05:09:02.026Z,1008.24
2016-07-06T05:10:02.030Z,1008.18
2016-07-06T05:11:02.022Z,1008.18
2016-07-06T05:12:02.021Z,1008.16
2016-07-06T05:13:02.023Z,1008.12
2016-07-06T05:14:02.022Z,1008.11
2016-07-06T05:15:02.018Z,1008.15
2016-07-06T05:16:02.018Z,1008.17
2016-07-06T05:17:02.017Z,1008.25
2016-07-06T05:18:02.016Z,1008.22
2016-07-06T05:19:02.015Z,1008.35
2016-07-06T05:20:02.012Z,1008.4
2016-07-06T05:21:02.011Z,1008.37
2016-07-06T05:22:02.012Z,1008.36
2016-07-06T05:23:02.006Z,1008.38
2016-07-06T05:24:02.003Z,1008.42
2016-07-06T05:25:02.006Z,1008.43
2016-07-06T05:26:02.004Z,1008.43
2016-07-06T05:27:02.003Z,1008.42
2016-07-06T05:28:02.001Z,1008.52
2016-07-06T05:29:01.998Z,1008.37
2016-07-06T05:30:02.000Z,1008.42
2016-07-06T05:31:01.997Z,1008.47
2016-07-06T05:32:01.997Z,1008.4
2016-07-06T05:33:01.998Z,1008.49
2016-07-06T05:34:01.994Z,1008.45
2016-07-06T05:35:01.992Z,1008.43
2016-07-06T05:36:02.003Z,1008.57
2016-07-06T05:37:01.992Z,1008.66
2016-07-06T05:38:01.989Z,1008.6
2016-07-06T05:39:01.989Z,1008.48
2016-07-06T05:40:01.988Z,1008.49
2016-07-06T05:41:01.986Z,1008.55
2016-07-06T05:42:01.985Z,1008.42
2016-07-06T05:43:01.984Z,1008.55
2016-07-06T05:44:01.986Z,1008.65
2016-07-06T05:45:01.983Z,1008.56
2016-07-06T05:46:01.983Z,1008.52
2016-07-06T05:47:01.980Z,1008.48
2016-07-06T05:48:01.978Z,1008.49
2016-07-06T05:49:01.979Z,1008.63
2016-07-06T05:50:01.979Z,1008.83
2016-07-06T05:51:01.977Z,1008.67
2016-07-06T05:52:01.975Z,1008.71
2016-07-06T05:53:01.977Z,1008.77
2016-07-06T05:54:01.973Z,1008.72
2016-07-06T05:55:01.974Z,1008.62
2016-07-06T05:56:01.971Z,1008.57
2016-07-06T05:57:01.972Z,1008.4
2016-07-06T05:58:01.972Z,1008.36
2016-07-06T05:59:01.965Z,1008.37
2016-07-06T06:00:03.194Z,1008.51
2016-07-06T06:01:01.968Z,1008.51
2016-07-06T06:02:01.970Z,1008.64
2016-07-06T06:03:01.964Z,1008.45
2016-07-06T06:04:01.960Z,1008.54
2016-07-06T06:05:01.965Z,1008.61
2016-07-06T06:06:01.965Z,1008.72
2016-07-06T06:07:01.965Z,1008.61
2016-07-06T06:08:02.106Z,1008.89
2016-07-06T06:09:01.963Z,1008.93
2016-07-06T06:10:03.207Z,1009.01
2016-07-06T06:11:01.959Z,1009.17
2016-07-06T06:12:01.958Z,1009.05
2016-07-06T06:13:02.711Z,1008.98
2016-07-06T06:14:01.957Z,1009.06
2016-07-06T06:15:01.955Z,1008.75
2016-07-06T06:16:01.955Z,1008.95
2016-07-06T06:17:01.956Z,1008.96
2016-07-06T06:18:01.951Z,1008.83
2016-07-06T06:19:01.954Z,1008.72
2016-07-06T06:20:01.954Z,1008.7
2016-07-06T06:21:02.551Z,1008.78
2016-07-06T06:22:01.950Z,1008.92
2016-07-06T06:23:01.951Z,1008.81
2016-07-06T06:24:01.951Z,1008.72
2016-07-06T06:25:01.948Z,1008.95
2016-07-06T06:26:01.947Z,1008.84
2016-07-06T06:27:01.948Z,1009.1
2016-07-06T06:28:01.948Z,1009.12
2016-07-06T06:29:01.944Z,1009.16
2016-07-06T06:30:01.946Z,1009.18
2016-07-06T06:31:01.941Z,1008.97
2016-07-06T06:32:01.945Z,1009.12
2016-07-06T06:33:01.942Z,1009.03
2016-07-06T06:34:01.939Z,1009
2016-07-06T06:35:01.943Z,1009.11
2016-07-06T06:36:01.943Z,1009.15
2016-07-06T06:37:01.954Z,1009.11
2016-07-06T06:38:01.936Z,1009.11
2016-07-06T06:39:01.940Z,1009.14
2016-07-06T06:40:01.941Z,1009.25
2016-07-06T06:41:01.939Z,1009.26
2016-07-06T06:42:01.939Z,1009.19
2016-07-06T06:43:01.940Z,1009.46
2016-07-06T06:44:01.939Z,1009.3
2016-07-06T06:45:01.942Z,1009.19
2016-07-06T06:46:01.942Z,1009.52
2016-07-06T06:47:01.939Z,1009.23
2016-07-06T06:48:01.941Z,1009.33
2016-07-06T06:49:01.945Z,1009.07
2016-07-06T06:50:01.945Z,1009.25
2016-07-06T06:51:01.947Z,1009.17
2016-07-06T06:52:01.947Z,1009.66
2016-07-06T06:53:01.951Z,1009.25
2016-07-06T06:54:01.952Z,1009.22
2016-07-06T06:55:01.948Z,1008.96
2016-07-06T06:56:01.956Z,1009.04
2016-07-06T06:57:01.954Z,1009
2016-07-06T06:58:01.962Z,1008.93
2016-07-06T06:59:01.965Z,1008.93
2016-07-06T07:00:01.968Z,1008.82
2016-07-06T07:01:01.970Z,1008.88
2016-07-06T07:02:01.966Z,1009.02
2016-07-06T07:03:01.976Z,1008.83
2016-07-06T07:04:01.973Z,1009.14
2016-07-06T07:05:01.991Z,1009.11
2016-07-06T07:06:01.979Z,1009.22
2016-07-06T07:07:01.980Z,1009.05
2016-07-06T07:08:01.987Z,1009.09
2016-07-06T07:09:01.987Z,1009.1
2016-07-06T07:10:01.985Z,1009.27
2016-07-06T07:11:01.987Z,1009.33
2016-07-06T07:12:01.991Z,1009.27
2016-07-06T07:13:01.992Z,1009.85
2016-07-06T07:14:01.995Z,1009.76
2016-07-06T07:15:01.990Z,1009.25
2016-07-06T07:16:01.998Z,1009.84
2016-07-06T07:17:03.453Z,1010.12
2016-07-06T07:19:02.006Z,1010.01
2016-07-06T07:20:02.007Z,1009.36
2016-07-06T07:21:02.012Z,1009.35
2016-07-06T07:22:02.017Z,1009.63
2016-07-06T07:23:02.023Z,1009.71
2016-07-06T07:24:02.026Z,1009.72
2016-07-06T07:25:02.029Z,1009.27
2016-07-06T07:26:02.031Z,1009.35
2016-07-06T07:27:02.475Z,1009.28
2016-07-06T07:28:02.047Z,1009.18
2016-07-06T07:29:02.051Z,1009.34
2016-07-06T07:30:02.056Z,1009.6
2016-07-06T07:31:02.842Z,1010.38
2016-07-06T07:32:02.618Z,1009.41
2016-07-06T07:33:02.069Z,1009.18
2016-07-06T07:34:02.425Z,1009.75
2016-07-06T07:35:02.382Z,1009.96
2016-07-06T07:36:02.085Z,1009.57
2016-07-06T07:37:02.339Z,1009.83
2016-07-06T07:38:02.098Z,1009.82
2016-07-06T07:39:02.101Z,1010.75
2016-07-06T07:40:02.109Z,1010.12
2016-07-06T07:41:02.216Z,1010.67
2016-07-06T07:42:02.120Z,1010.16
2016-07-06T07:43:02.228Z,1009.63
2016-07-06T07:44:02.142Z,1010.13
2016-07-06T07:45:02.147Z,1009.66
2016-07-06T07:46:02.154Z,1009.48
2016-07-06T07:47:02.157Z,1010.7
2016-07-06T07:48:02.171Z,1010.96
2016-07-06T07:49:02.176Z,1009.89
2016-07-06T07:50:02.189Z,1009.78
2016-07-06T07:51:02.194Z,1010.06
2016-07-06T07:52:02.210Z,1009.95
2016-07-06T07:53:02.220Z,1010.02
2016-07-06T07:54:02.227Z,1011.01
2016-07-06T07:55:02.237Z,1010.21
2016-07-06T07:56:02.248Z,1010.36
2016-07-06T07:57:02.256Z,1009.95
2016-07-06T07:58:02.269Z,1009.78
2016-07-06T07:59:02.280Z,1009.81
2016-07-06T08:00:02.289Z,1009.65
2016-07-06T08:01:02.293Z,1009.76
2016-07-06T08:02:02.310Z,1009.5
2016-07-06T08:03:02.318Z,1009.6
2016-07-06T08:04:02.326Z,1009.71
2016-07-06T08:05:02.338Z,1009.74
2016-07-06T08:06:02.342Z,1009.97
2016-07-06T08:07:02.354Z,1009.71
2016-07-06T08:08:02.364Z,1009.76
2016-07-06T08:09:02.368Z,1009.6
2016-07-06T08:10:02.381Z,1009.98
2016-07-06T08:11:02.388Z,1009.98
2016-07-06T08:12:02.394Z,1009.94
2016-07-06T08:13:02.402Z,1011.02
2016-07-06T08:14:02.407Z,1011.12
2016-07-06T08:15:02.414Z,1010.08
2016-07-06T08:16:02.424Z,1009.91
2016-07-06T08:17:02.427Z,1009.92
2016-07-06T08:18:02.437Z,1009.88
2016-07-06T08:19:02.441Z,1009.74
2016-07-06T08:20:02.453Z,1009.95
2016-07-06T08:21:02.460Z,1009.98
2016-07-06T08:22:02.467Z,1011.11
2016-07-06T08:23:02.480Z,1010.99
2016-07-06T08:24:02.481Z,1009.99
2016-07-06T08:25:02.502Z,1009.99
2016-07-06T08:26:02.497Z,1011.14
2016-07-06T08:27:02.507Z,1009.83
2016-07-06T08:28:02.516Z,1010.38
2016-07-06T08:29:02.525Z,1009.71
2016-07-06T08:30:02.531Z,1011.24
2016-07-06T08:31:02.536Z,1009.74
2016-07-06T08:32:02.549Z,1009.74
2016-07-06T08:33:02.556Z,1010.12
2016-07-06T08:34:02.561Z,1009.82
2016-07-06T08:35:03.800Z,1010.81
2016-07-06T08:36:02.577Z,1009.67
2016-07-06T08:37:02.670Z,1010.01
2016-07-06T08:38:02.598Z,1010.3
2016-07-06T08:39:03.583Z,1009.74
2016-07-06T08:40:02.623Z,1010.77
2016-07-06T08:41:02.625Z,1010.92
2016-07-06T08:42:02.738Z,1011.03
2016-07-06T08:43:02.641Z,1010.18
2016-07-06T08:44:02.647Z,1010.55
2016-07-06T08:45:03.716Z,1009.92
2016-07-06T08:46:02.667Z,1009.81
2016-07-06T08:47:02.678Z,1009.73
2016-07-06T08:48:02.687Z,1010.44
2016-07-06T08:49:03.850Z,1009.97
2016-07-06T08:50:02.805Z,1010.07
2016-07-06T08:51:02.718Z,1010.86
2016-07-06T08:52:02.723Z,1010.3
2016-07-06T08:53:02.731Z,1009.88
2016-07-06T08:54:02.740Z,1010.12
2016-07-06T08:55:02.748Z,1010.21
2016-07-06T08:56:02.760Z,1010.18
2016-07-06T08:57:02.769Z,1010.14
2016-07-06T08:58:02.778Z,1010.28
2016-07-06T09:00:02.793Z,1009.93
2016-07-06T09:01:02.801Z,1009.97
2016-07-06T09:03:02.813Z,1010
2016-07-06T09:04:02.820Z,1010.1
2016-07-06T09:05:02.827Z,1010.26
2016-07-06T09:06:02.836Z,1009.98
2016-07-06T09:07:02.842Z,1010.28
2016-07-06T09:08:02.849Z,1010.44
2016-07-06T09:09:02.854Z,1010.44
2016-07-06T09:10:02.862Z,1010.47
2016-07-06T09:11:02.865Z,1010.52
2016-07-06T09:12:02.874Z,1010.44
2016-07-06T09:13:02.878Z,1010.25
2016-07-06T09:14:02.884Z,1010.18
2016-07-06T09:15:02.889Z,1010
2016-07-06T09:16:02.897Z,1009.85
2016-07-06T09:17:02.900Z,1009.76
2016-07-06T09:18:02.906Z,1009.66
2016-07-06T09:19:02.914Z,1009.55
2016-07-06T09:20:02.919Z,1009.82
2016-07-06T09:21:02.919Z,1009.66
2016-07-06T09:22:02.924Z,1009.74
2016-07-06T09:23:02.932Z,1009.81
2016-07-06T09:24:02.937Z,1009.91
2016-07-06T09:25:02.942Z,1009.96
2016-07-06T09:26:02.948Z,1010.06
2016-07-06T09:27:02.950Z,1010.24
2016-07-06T09:28:02.956Z,1010.39
2016-07-06T09:29:02.959Z,1010.29
2016-07-06T09:30:02.964Z,1010.35
2016-07-06T09:31:02.968Z,1010.29
2016-07-06T09:32:02.969Z,1010.17
2016-07-06T09:33:02.972Z,1010.14
2016-07-06T09:34:02.976Z,1010.1
2016-07-06T09:35:02.980Z,1010.29
2016-07-06T09:36:02.985Z,1009.99
2016-07-06T09:37:02.986Z,1010.13
2016-07-06T09:38:02.990Z,1010.15
2016-07-06T09:39:02.994Z,1010.44
2016-07-06T09:40:02.994Z,1010.07
2016-07-06T09:41:02.996Z,1010.41
2016-07-06T09:42:03.006Z,1010.2
2016-07-06T09:43:03.008Z,1010.43
2016-07-06T09:44:03.011Z,1010.56
2016-07-06T09:45:03.016Z,1010.43
2016-07-06T09:46:03.017Z,1010.44
2016-07-06T09:47:03.022Z,1010.14
2016-07-06T09:48:03.022Z,1010.12
2016-07-06T09:49:03.028Z,1010.35
2016-07-06T09:50:03.030Z,1010.4
2016-07-06T09:51:03.033Z,1010.25
2016-07-06T09:52:03.041Z,1010.28
2016-07-06T09:53:03.529Z,1010
2016-07-06T09:54:03.048Z,1010.06
2016-07-06T09:55:03.049Z,1010.01
2016-07-06T09:56:03.052Z,1009.99
2016-07-06T09:57:03.059Z,1010.14
2016-07-06T09:58:03.059Z,1010.31
2016-07-06T09:59:03.061Z,1010.53
2016-07-06T10:00:03.064Z,1010.47
2016-07-06T10:01:03.068Z,1010.45
2016-07-06T10:02:03.070Z,1010.43
2016-07-06T10:03:04.624Z,1010.22
2016-07-06T10:04:03.938Z,1010.41
2016-07-06T10:05:03.083Z,1010.32
2016-07-06T10:06:03.084Z,1010.2
2016-07-06T10:08:03.633Z,1010.1
2016-07-06T10:09:03.494Z,1010.19
2016-07-06T10:10:03.100Z,1010.07
2016-07-06T10:11:03.103Z,1010.02
2016-07-06T10:12:03.108Z,1010.1
2016-07-06T10:13:03.110Z,1009.92
2016-07-06T10:14:03.111Z,1010.02
2016-07-06T10:15:03.114Z,1010.18
2016-07-06T10:16:03.121Z,1010.47
2016-07-06T10:17:03.124Z,1010.4
2016-07-06T10:19:03.132Z,1010.1
2016-07-06T10:20:03.133Z,1010.13
2016-07-06T10:21:03.137Z,1010.09
2016-07-06T10:22:03.338Z,1010.22
2016-07-06T10:23:03.143Z,1010.44
2016-07-06T10:24:03.144Z,1010.46
2016-07-06T10:25:03.147Z,1010.47
2016-07-06T10:26:03.152Z,1010.41
2016-07-06T10:27:03.150Z,1010.61
2016-07-06T10:28:03.154Z,1010.79
2016-07-06T10:29:03.169Z,1010.7
2016-07-06T10:30:03.163Z,1010.77
2016-07-06T10:31:03.167Z,1010.76
2016-07-06T10:32:03.168Z,1010.77
2016-07-06T10:33:03.172Z,1010.64
2016-07-06T10:34:03.177Z,1010.29
2016-07-06T10:35:03.180Z,1010.33
2016-07-06T10:36:03.184Z,1010.23
2016-07-06T10:37:03.188Z,1010.25
2016-07-06T10:38:03.189Z,1010.36
2016-07-06T10:39:03.193Z,1010.73
2016-07-06T10:40:03.199Z,1010.78
2016-07-06T10:41:03.200Z,1010.57
2016-07-06T10:42:03.204Z,1010.45
2016-07-06T10:43:03.210Z,1010.53
2016-07-06T10:44:03.214Z,1010.47
2016-07-06T10:45:03.218Z,1010.47
2016-07-06T10:46:03.221Z,1010.42
2016-07-06T10:47:03.227Z,1010.22
2016-07-06T10:48:03.229Z,1010.09
2016-07-06T10:49:03.234Z,1010.09
2016-07-06T10:50:03.246Z,1010.02
2016-07-06T10:51:03.243Z,1009.88
2016-07-06T10:52:03.241Z,1010.01
2016-07-06T10:53:03.243Z,1010.02
2016-07-06T10:54:03.252Z,1010.01
2016-07-06T10:55:03.257Z,1010.07
2016-07-06T10:56:03.568Z,1010.03
2016-07-06T10:57:03.265Z,1010.03
2016-07-06T10:58:03.269Z,1010.1
2016-07-06T10:59:03.528Z,1010.33
2016-07-06T11:00:03.272Z,1010.59
2016-07-06T11:01:03.276Z,1010.66
2016-07-06T11:02:03.282Z,1010.55
2016-07-06T11:03:03.284Z,1010.52
2016-07-06T11:04:03.286Z,1010.48
2016-07-06T11:05:03.290Z,1010.38
2016-07-06T11:06:03.294Z,1010.3
2016-07-06T11:07:03.296Z,1010.35
2016-07-06T11:08:03.300Z,1010.59
2016-07-06T11:09:03.304Z,1010.58
2016-07-06T11:10:03.307Z,1010.54
2016-07-06T11:11:03.308Z,1010.55
2016-07-06T11:12:03.312Z,1010.82
2016-07-06T11:13:03.315Z,1010.89
2016-07-06T11:14:03.316Z,1010.66
2016-07-06T11:15:03.322Z,1010.81
2016-07-06T11:16:03.322Z,1011.14
2016-07-06T11:17:03.327Z,1010.96
2016-07-06T11:18:03.328Z,1010.93
2016-07-06T11:19:03.331Z,1011.05
2016-07-06T11:20:03.334Z,1011.2
2016-07-06T11:21:05.073Z,1011.03
2016-07-06T11:22:03.339Z,1011.02
2016-07-06T11:23:03.345Z,1011.14
2016-07-06T11:24:03.347Z,1011.12
2016-07-06T11:25:03.348Z,1011.15
2016-07-06T11:26:03.350Z,1010.87
2016-07-06T11:27:03.429Z,1011.23
2016-07-06T11:28:03.509Z,1011.27
2016-07-06T11:29:03.361Z,1011.15
2016-07-06T11:30:03.362Z,1011.09
2016-07-06T11:31:03.367Z,1010.97
2016-07-06T11:32:03.363Z,1011.06
2016-07-06T11:33:03.370Z,1011.1
2016-07-06T11:34:03.371Z,1010.92
2016-07-06T11:35:03.381Z,1010.91
2016-07-06T11:36:03.384Z,1010.85
2016-07-06T11:37:03.785Z,1010.78
2016-07-06T11:39:03.390Z,1010.57
2016-07-06T11:40:03.396Z,1010.44
2016-07-06T11:41:03.700Z,1010.52
2016-07-06T11:42:03.397Z,1010.48
2016-07-06T11:43:03.404Z,1010.44
2016-07-06T11:44:03.402Z,1010.47
2016-07-06T11:45:03.413Z,1010.34
2016-07-06T11:46:03.415Z,1010.36
2016-07-06T11:47:03.412Z,1010.35
2016-07-06T11:48:03.414Z,1010.37
2016-07-06T11:49:03.417Z,1010.36
2016-07-06T11:50:03.421Z,1010.31
2016-07-06T11:51:03.421Z,1010.32
2016-07-06T11:52:03.425Z,1010.39
2016-07-06T11:53:03.426Z,1010.33
2016-07-06T11:54:03.429Z,1010.31
2016-07-06T11:55:03.431Z,1010.34
2016-07-06T11:56:03.433Z,1010.28
2016-07-06T11:57:03.434Z,1010.32
2016-07-06T11:58:03.437Z,1010.42
2016-07-06T11:59:03.436Z,1010.37
2016-07-06T12:00:03.439Z,1010.39
2016-07-06T12:01:03.442Z,1010.56
2016-07-06T12:02:03.441Z,1010.62
2016-07-06T12:03:03.449Z,1010.51
2016-07-06T12:04:03.449Z,1010.83
2016-07-06T12:05:03.451Z,1010.92
2016-07-06T12:06:03.448Z,1010.86
2016-07-06T12:07:03.456Z,1010.71
2016-07-06T12:08:03.457Z,1010.63
2016-07-06T12:09:03.460Z,1010.63
2016-07-06T12:10:03.460Z,1010.76
2016-07-06T12:11:03.465Z,1010.37
2016-07-06T12:12:03.467Z,1010.31
2016-07-06T12:13:03.467Z,1010.23
2016-07-06T12:14:03.468Z,1010.16
2016-07-06T12:15:03.473Z,1010.16